createdAt,value
2019-03-17T00:00:09.961Z,20.57
2019-03-17T00:00:44.905Z,27.90
2019-03-17T00:01:17.957Z,31.40
2019-03-17T00:01:57.223Z,37.33
2019-03-17T00:02:23.382Z,28.07
2019-03-17T00:02:54.560Z,24.80
2019-03-17T00:03:25.744Z,21.00
2019-03-17T00:03:56.900Z,19.97
2019-03-17T00:04:31.714Z,16.43
2019-03-17T00:05:01.308Z,18.97
2019-03-17T00:05:32.448Z,18.47
2019-03-17T00:06:03.617Z,18.97
2019-03-17T00:06:34.836Z,15.73
2019-03-17T00:07:05.993Z,17.00
2019-03-17T00:07:37.199Z,18.07
2019-03-17T00:08:08.377Z,18.73
2019-03-17T00:08:39.528Z,18.53
2019-03-17T00:09:10.697Z,20.20
2019-03-17T00:09:41.890Z,21.17
2019-03-17T00:10:13.282Z,24.70
2019-03-17T00:10:44.524Z,30.97
2019-03-17T00:11:15.731Z,35.40
2019-03-17T00:11:46.919Z,36.90
2019-03-17T00:12:18.095Z,36.97
2019-03-17T00:12:49.306Z,35.37
2019-03-17T00:13:20.516Z,37.07
2019-03-17T00:13:51.778Z,32.33
2019-03-17T00:14:22.984Z,29.03
2019-03-17T00:15:04.577Z,34.03
2019-03-17T00:15:27.253Z,25.53
2019-03-17T00:15:58.415Z,26.73
2019-03-17T00:16:30.700Z,25.53
2019-03-17T00:17:01.885Z,24.70
2019-03-17T00:17:33.083Z,24.13
2019-03-17T00:18:04.351Z,24.67
2019-03-17T00:18:35.545Z,25.90
2019-03-17T00:19:06.695Z,23.50
2019-03-17T00:19:37.905Z,25.97
2019-03-17T00:20:09.067Z,25.13
2019-03-17T00:20:40.286Z,22.50
2019-03-17T00:21:11.440Z,20.83
2019-03-17T00:21:42.648Z,19.33
2019-03-17T00:22:13.802Z,18.13
2019-03-17T00:22:45.052Z,18.43
2019-03-17T00:23:17.215Z,16.33
2019-03-17T00:23:48.421Z,18.43
2019-03-17T00:24:19.587Z,18.73
2019-03-17T00:24:51.808Z,16.30
2019-03-17T00:25:22.995Z,16.13
2019-03-17T00:25:54.204Z,17.37
2019-03-17T00:26:25.362Z,17.07
2019-03-17T00:26:56.582Z,16.13
2019-03-17T00:27:27.832Z,17.10
2019-03-17T00:27:59.046Z,19.17
2019-03-17T00:28:30.246Z,17.40
2019-03-17T00:29:01.536Z,21.87
2019-03-17T00:29:32.769Z,21.30
2019-03-17T00:30:08.147Z,21.13
2019-03-17T00:30:39.377Z,21.73
2019-03-17T00:31:22.884Z,21.53
2019-03-17T00:31:43.759Z,22.23
2019-03-17T00:32:14.993Z,20.77
2019-03-17T00:32:46.247Z,21.93
2019-03-17T00:33:17.499Z,21.60
2019-03-17T00:33:48.721Z,20.77
2019-03-17T00:34:19.947Z,20.10
2019-03-17T00:34:51.238Z,23.13
2019-03-17T00:35:22.413Z,21.37
2019-03-17T00:35:53.662Z,21.27
2019-03-17T00:36:24.855Z,18.97
2019-03-17T00:36:56.073Z,19.77
2019-03-17T00:37:27.241Z,20.77
2019-03-17T00:37:58.475Z,19.83
2019-03-17T00:38:29.681Z,18.00
2019-03-17T00:39:00.911Z,18.93
2019-03-17T00:39:32.068Z,16.97
2019-03-17T00:40:06.730Z,17.40
2019-03-17T00:40:37.883Z,15.47
2019-03-17T00:41:09.101Z,17.20
2019-03-17T00:41:40.254Z,17.13
2019-03-17T00:42:11.508Z,19.03
2019-03-17T00:42:42.669Z,18.30
2019-03-17T00:43:13.882Z,20.07
2019-03-17T00:43:45.055Z,18.77
2019-03-17T00:44:16.299Z,18.03
2019-03-17T00:44:47.519Z,19.80
2019-03-17T00:45:18.752Z,17.07
2019-03-17T00:45:49.985Z,18.07
2019-03-17T00:46:21.223Z,19.17
2019-03-17T00:46:52.388Z,21.13
2019-03-17T00:47:23.624Z,19.43
2019-03-17T00:47:54.788Z,17.47
2019-03-17T00:48:26.005Z,17.77
2019-03-17T00:48:57.240Z,20.60
2019-03-17T00:49:28.423Z,17.90
2019-03-17T00:49:59.621Z,15.80
2019-03-17T00:50:30.824Z,15.53
2019-03-17T00:51:02.018Z,17.53
2019-03-17T00:51:33.228Z,18.27
2019-03-17T00:52:04.502Z,16.37
2019-03-17T00:52:35.683Z,18.17
2019-03-17T00:53:06.874Z,18.10
2019-03-17T00:53:38.064Z,16.50
2019-03-17T00:54:09.316Z,18.27
2019-03-17T00:54:40.544Z,16.07
2019-03-17T00:55:11.731Z,15.63
2019-03-17T00:55:42.903Z,17.57
2019-03-17T00:56:14.104Z,18.97
2019-03-17T00:56:45.280Z,17.90
2019-03-17T00:57:16.520Z,16.93
2019-03-17T00:57:47.741Z,16.13
2019-03-17T00:58:18.920Z,18.43
2019-03-17T00:58:50.100Z,17.10
2019-03-17T00:59:21.351Z,17.83
2019-03-17T00:59:52.543Z,20.33
2019-03-17T01:00:23.763Z,18.10
2019-03-17T01:00:55.022Z,17.70
2019-03-17T01:01:26.213Z,19.97
2019-03-17T01:01:57.387Z,21.57
2019-03-17T01:02:28.574Z,19.17
2019-03-17T01:02:59.782Z,21.43
2019-03-17T01:03:30.971Z,20.00
2019-03-17T01:04:02.255Z,17.40
2019-03-17T01:04:33.399Z,17.23
2019-03-17T01:05:04.701Z,19.10
2019-03-17T01:05:36.867Z,20.13
2019-03-17T01:06:08.071Z,18.23
2019-03-17T01:06:39.219Z,19.17
2019-03-17T01:07:10.425Z,21.10
2019-03-17T01:07:41.583Z,20.03
2019-03-17T01:08:12.791Z,18.57
2019-03-17T01:08:43.956Z,17.23
2019-03-17T01:09:15.251Z,17.10
2019-03-17T01:09:46.445Z,20.63
2019-03-17T01:10:18.669Z,17.53
2019-03-17T01:10:49.827Z,20.50
2019-03-17T01:11:21.061Z,18.33
2019-03-17T01:11:52.215Z,17.13
2019-03-17T01:12:23.534Z,16.73
2019-03-17T01:12:54.666Z,19.10
2019-03-17T01:13:25.864Z,18.13
2019-03-17T01:13:57.020Z,18.53
2019-03-17T01:14:28.462Z,17.60
2019-03-17T01:14:59.628Z,17.47
2019-03-17T01:15:30.834Z,19.13
2019-03-17T01:16:02.028Z,19.50
2019-03-17T01:16:33.223Z,18.80
2019-03-17T01:17:04.385Z,18.70
2019-03-17T01:17:35.589Z,20.20
2019-03-17T01:18:06.762Z,20.40
2019-03-17T01:18:37.975Z,19.20
2019-03-17T01:19:09.200Z,20.63
2019-03-17T01:19:40.369Z,21.30
2019-03-17T01:20:11.562Z,19.33
2019-03-17T01:20:42.742Z,21.63
2019-03-17T01:21:13.943Z,18.67
2019-03-17T01:21:45.116Z,20.33
2019-03-17T01:22:16.345Z,18.90
2019-03-17T01:22:47.533Z,19.10
2019-03-17T01:23:18.715Z,19.83
2019-03-17T01:23:49.919Z,18.60
2019-03-17T01:24:21.107Z,19.93
2019-03-17T01:24:53.307Z,18.83
2019-03-17T01:25:24.754Z,17.57
2019-03-17T01:25:55.945Z,18.00
2019-03-17T01:26:27.131Z,19.87
2019-03-17T01:26:58.410Z,17.13
2019-03-17T01:27:30.627Z,17.80
2019-03-17T01:28:01.900Z,19.27
2019-03-17T01:28:33.149Z,18.43
2019-03-17T01:29:04.333Z,20.67
2019-03-17T01:29:35.507Z,17.70
2019-03-17T01:30:09.743Z,20.27
2019-03-17T01:30:41.927Z,19.23
2019-03-17T01:31:13.111Z,18.33
2019-03-17T01:31:44.291Z,17.93
2019-03-17T01:32:15.485Z,18.53
2019-03-17T01:32:46.680Z,20.30
2019-03-17T01:33:17.864Z,19.90
2019-03-17T01:33:49.055Z,19.37
2019-03-17T01:34:20.306Z,24.33
2019-03-17T01:34:51.579Z,20.77
2019-03-17T01:35:22.835Z,19.47
2019-03-17T01:35:54.030Z,20.43
2019-03-17T01:36:25.456Z,20.27
2019-03-17T01:36:56.612Z,20.43
2019-03-17T01:37:27.838Z,19.77
2019-03-17T01:37:59.008Z,18.33
2019-03-17T01:38:31.210Z,20.80
2019-03-17T01:39:04.588Z,21.63
2019-03-17T01:39:35.809Z,17.27
2019-03-17T01:40:09.156Z,17.93
2019-03-17T01:40:40.356Z,19.57
2019-03-17T01:41:11.516Z,19.53
2019-03-17T01:41:42.725Z,17.30
2019-03-17T01:42:13.890Z,21.50
2019-03-17T01:42:45.103Z,19.10
2019-03-17T01:43:16.270Z,18.43
2019-03-17T01:43:47.468Z,18.17
2019-03-17T01:44:18.679Z,21.13
2019-03-17T01:44:49.895Z,19.87
2019-03-17T01:45:21.042Z,20.60
2019-03-17T01:45:52.252Z,20.40
2019-03-17T01:46:23.421Z,19.17
2019-03-17T01:46:54.937Z,18.90
2019-03-17T01:47:27.746Z,18.60
2019-03-17T01:47:59.203Z,18.77
2019-03-17T01:48:31.381Z,20.40
2019-03-17T01:49:02.655Z,20.77
2019-03-17T01:49:33.869Z,19.03
2019-03-17T01:50:06.941Z,17.57
2019-03-17T01:50:38.143Z,18.60
2019-03-17T01:51:09.293Z,19.03
2019-03-17T01:51:40.515Z,20.17
2019-03-17T01:52:11.687Z,19.73
2019-03-17T01:52:42.874Z,19.93
2019-03-17T01:53:14.031Z,19.77
2019-03-17T01:53:45.255Z,20.30
2019-03-17T01:54:16.455Z,20.70
2019-03-17T01:54:47.679Z,19.90
2019-03-17T01:55:18.841Z,18.33
2019-03-17T01:55:51.043Z,19.33
2019-03-17T01:56:22.186Z,18.00
2019-03-17T01:56:53.393Z,18.13
2019-03-17T01:57:24.874Z,18.97
2019-03-17T01:57:56.095Z,16.73
2019-03-17T01:58:27.262Z,18.97
2019-03-17T01:58:58.455Z,19.57
2019-03-17T01:59:29.621Z,17.63
2019-03-17T02:00:00.874Z,17.60
2019-03-17T02:00:32.030Z,19.17
2019-03-17T02:01:03.252Z,17.77
2019-03-17T02:01:34.418Z,16.77
2019-03-17T02:02:05.628Z,18.03
2019-03-17T02:02:36.833Z,17.67
2019-03-17T02:03:08.084Z,20.47
2019-03-17T02:03:39.245Z,17.67
2019-03-17T02:04:10.454Z,19.13
2019-03-17T02:04:41.653Z,20.70
2019-03-17T02:05:21.949Z,20.87
2019-03-17T02:05:46.036Z,18.37
2019-03-17T02:06:17.282Z,20.50
2019-03-17T02:06:48.524Z,19.70
2019-03-17T02:07:19.765Z,19.33
2019-03-17T02:07:50.988Z,22.17
2019-03-17T02:08:22.240Z,19.77
2019-03-17T02:08:53.477Z,20.60
2019-03-17T02:09:25.017Z,19.87
2019-03-17T02:09:56.225Z,19.00
2019-03-17T02:10:27.402Z,18.40
2019-03-17T02:10:58.628Z,20.77
2019-03-17T02:11:29.792Z,21.00
2019-03-17T02:12:00.997Z,18.40
2019-03-17T02:12:32.167Z,18.03
2019-03-17T02:13:03.398Z,19.70
2019-03-17T02:13:34.545Z,17.90
2019-03-17T02:14:05.757Z,18.10
2019-03-17T02:14:36.910Z,18.67
2019-03-17T02:15:08.220Z,18.00
2019-03-17T02:15:39.415Z,17.70
2019-03-17T02:16:10.681Z,17.77
2019-03-17T02:16:41.826Z,17.50
2019-03-17T02:17:13.152Z,19.13
2019-03-17T02:17:44.325Z,16.63
2019-03-17T02:18:15.543Z,17.53
2019-03-17T02:18:46.702Z,18.17
2019-03-17T02:19:17.919Z,16.67
2019-03-17T02:19:49.133Z,18.83
2019-03-17T02:20:20.391Z,17.17
2019-03-17T02:20:51.553Z,19.27
2019-03-17T02:21:22.762Z,19.67
2019-03-17T02:21:53.930Z,18.50
2019-03-17T02:22:25.496Z,18.70
2019-03-17T02:22:56.762Z,18.03
2019-03-17T02:23:28.226Z,18.53
2019-03-17T02:24:00.364Z,20.87
2019-03-17T02:24:31.576Z,27.40
2019-03-17T02:25:04.152Z,18.83
2019-03-17T02:25:35.416Z,20.27
2019-03-17T02:26:06.659Z,20.93
2019-03-17T02:26:37.936Z,17.90
2019-03-17T02:27:09.167Z,18.33
2019-03-17T02:27:40.402Z,17.47
2019-03-17T02:28:11.636Z,21.07
2019-03-17T02:28:42.868Z,17.90
2019-03-17T02:29:14.152Z,17.37
2019-03-17T02:29:45.393Z,17.87
2019-03-17T02:30:16.614Z,19.30
2019-03-17T02:30:47.799Z,17.03
2019-03-17T02:31:19.052Z,18.63
2019-03-17T02:31:50.268Z,17.83
2019-03-17T02:32:22.499Z,19.63
2019-03-17T02:32:53.762Z,20.83
2019-03-17T02:33:25.286Z,15.77
2019-03-17T02:33:56.437Z,17.63
2019-03-17T02:34:27.689Z,17.53
2019-03-17T02:34:58.829Z,17.33
2019-03-17T02:35:38.747Z,16.93
2019-03-17T02:36:03.130Z,15.73
2019-03-17T02:36:35.351Z,17.23
2019-03-17T02:37:06.519Z,18.60
2019-03-17T02:37:37.712Z,17.13
2019-03-17T02:38:09.865Z,19.83
2019-03-17T02:38:41.074Z,19.03
2019-03-17T02:39:12.231Z,17.83
2019-03-17T02:39:43.458Z,18.33
2019-03-17T02:40:14.703Z,19.20
2019-03-17T02:40:46.027Z,16.87
2019-03-17T02:41:17.263Z,17.73
2019-03-17T02:41:48.491Z,18.17
2019-03-17T02:42:19.827Z,17.00
2019-03-17T02:42:52.083Z,15.97
2019-03-17T02:43:23.309Z,17.37
2019-03-17T02:43:54.918Z,17.87
2019-03-17T02:44:26.163Z,16.13
2019-03-17T02:44:57.691Z,16.23
2019-03-17T02:45:28.890Z,17.70
2019-03-17T02:46:02.853Z,15.80
2019-03-17T02:46:33.164Z,15.60
2019-03-17T02:47:04.327Z,13.27
2019-03-17T02:47:35.530Z,14.53
2019-03-17T02:48:06.713Z,16.13
2019-03-17T02:48:37.937Z,16.10
2019-03-17T02:49:09.188Z,15.43
2019-03-17T02:49:40.460Z,15.00
2019-03-17T02:50:11.652Z,13.73
2019-03-17T02:50:42.805Z,15.57
2019-03-17T02:51:14.006Z,16.17
2019-03-17T02:51:45.182Z,19.70
2019-03-17T02:52:16.480Z,17.27
2019-03-17T02:52:47.665Z,17.33
2019-03-17T02:53:18.889Z,17.90
2019-03-17T02:53:50.068Z,17.33
2019-03-17T02:54:21.364Z,18.50
2019-03-17T02:54:52.514Z,19.40
2019-03-17T02:55:23.740Z,15.93
2019-03-17T02:55:54.939Z,15.60
2019-03-17T02:56:26.153Z,14.90
2019-03-17T02:56:57.299Z,15.10
2019-03-17T02:57:28.516Z,17.43
2019-03-17T02:57:59.668Z,16.13
2019-03-17T02:58:30.876Z,16.77
2019-03-17T02:59:02.058Z,15.83
2019-03-17T02:59:33.281Z,15.13
2019-03-17T03:00:08.643Z,17.40
2019-03-17T03:00:39.834Z,15.07
2019-03-17T03:01:11.049Z,13.37
2019-03-17T03:01:42.211Z,15.33
2019-03-17T03:02:13.388Z,13.77
2019-03-17T03:02:44.581Z,15.30
2019-03-17T03:03:15.764Z,15.13
2019-03-17T03:03:46.942Z,14.60
2019-03-17T03:04:18.131Z,13.40
2019-03-17T03:04:49.311Z,14.50
2019-03-17T03:05:20.535Z,15.37
2019-03-17T03:05:55.122Z,14.17
2019-03-17T03:06:24.895Z,14.77
2019-03-17T03:06:56.090Z,18.60
2019-03-17T03:07:27.697Z,14.70
2019-03-17T03:07:58.853Z,16.73
2019-03-17T03:08:31.083Z,14.83
2019-03-17T03:09:05.147Z,16.00
2019-03-17T03:09:36.388Z,16.20
2019-03-17T03:10:07.607Z,14.23
2019-03-17T03:10:38.808Z,14.63
2019-03-17T03:11:09.956Z,16.07
2019-03-17T03:11:41.158Z,15.80
2019-03-17T03:12:12.316Z,13.27
2019-03-17T03:12:43.525Z,12.40
2019-03-17T03:13:14.711Z,14.37
2019-03-17T03:13:46.008Z,14.53
2019-03-17T03:14:17.168Z,14.20
2019-03-17T03:14:48.472Z,13.90
2019-03-17T03:15:19.654Z,14.73
2019-03-17T03:15:50.855Z,13.87
2019-03-17T03:16:22.020Z,13.00
2019-03-17T03:16:53.372Z,14.27
2019-03-17T03:17:24.872Z,13.50
2019-03-17T03:17:56.166Z,14.67
2019-03-17T03:18:27.692Z,15.57
2019-03-17T03:18:58.934Z,13.30
2019-03-17T03:19:30.078Z,14.90
2019-03-17T03:20:01.263Z,15.73
2019-03-17T03:20:32.441Z,12.17
2019-03-17T03:21:03.626Z,12.70
2019-03-17T03:21:34.804Z,14.20
2019-03-17T03:22:06.073Z,13.50
2019-03-17T03:22:37.290Z,15.23
2019-03-17T03:23:08.502Z,15.10
2019-03-17T03:23:39.678Z,13.57
2019-03-17T03:24:10.858Z,15.87
2019-03-17T03:24:42.042Z,14.87
2019-03-17T03:25:13.246Z,13.97
2019-03-17T03:25:44.442Z,17.37
2019-03-17T03:26:15.599Z,14.73
2019-03-17T03:26:46.813Z,16.27
2019-03-17T03:27:17.988Z,13.50
2019-03-17T03:27:49.201Z,14.90
2019-03-17T03:28:20.575Z,16.43
2019-03-17T03:28:51.768Z,12.10
2019-03-17T03:29:22.929Z,14.77
2019-03-17T03:29:54.139Z,11.93
2019-03-17T03:30:25.306Z,12.50
2019-03-17T03:30:56.533Z,13.67
2019-03-17T03:31:27.801Z,11.80
2019-03-17T03:31:59.047Z,13.77
2019-03-17T03:32:30.282Z,12.13
2019-03-17T03:33:01.475Z,12.23
2019-03-17T03:33:32.639Z,12.57
2019-03-17T03:34:03.967Z,14.23
2019-03-17T03:34:35.210Z,13.10
2019-03-17T03:35:07.992Z,13.47
2019-03-17T03:35:39.265Z,15.00
2019-03-17T03:36:11.866Z,13.23
2019-03-17T03:36:43.382Z,14.67
2019-03-17T03:37:14.589Z,14.87
2019-03-17T03:37:45.747Z,14.07
2019-03-17T03:38:16.949Z,16.47
2019-03-17T03:38:48.114Z,16.83
2019-03-17T03:39:19.349Z,17.13
2019-03-17T03:39:50.593Z,19.07
2019-03-17T03:40:21.803Z,17.70
2019-03-17T03:40:52.986Z,17.33
2019-03-17T03:41:24.178Z,20.20
2019-03-17T03:41:56.472Z,18.27
2019-03-17T03:42:27.806Z,17.23
2019-03-17T03:42:58.974Z,15.63
2019-03-17T03:43:30.157Z,16.80
2019-03-17T03:44:01.326Z,15.77
2019-03-17T03:44:32.505Z,14.83
2019-03-17T03:45:11.365Z,13.83
2019-03-17T03:45:42.554Z,16.13
2019-03-17T03:46:13.729Z,15.37
2019-03-17T03:46:44.907Z,14.80
2019-03-17T03:47:16.091Z,13.17
2019-03-17T03:47:47.281Z,15.00
2019-03-17T03:48:18.505Z,13.57
2019-03-17T03:48:49.717Z,21.27
2019-03-17T03:49:20.942Z,14.40
2019-03-17T03:49:52.119Z,13.17
2019-03-17T03:50:23.325Z,12.87
2019-03-17T03:50:54.761Z,13.40
2019-03-17T03:51:26.013Z,12.80
2019-03-17T03:51:57.201Z,14.00
2019-03-17T03:52:28.403Z,12.93
2019-03-17T03:53:00.596Z,14.40
2019-03-17T03:53:31.797Z,12.70
2019-03-17T03:54:02.998Z,14.60
2019-03-17T03:54:34.262Z,17.47
2019-03-17T03:55:07.178Z,12.23
2019-03-17T03:55:41.923Z,13.80
2019-03-17T03:56:11.444Z,12.60
2019-03-17T03:56:42.614Z,12.30
2019-03-17T03:57:14.818Z,12.70
2019-03-17T03:57:45.999Z,13.33
2019-03-17T03:58:17.164Z,13.63
2019-03-17T03:58:48.348Z,13.13
2019-03-17T03:59:19.524Z,12.77
2019-03-17T03:59:50.716Z,13.80
2019-03-17T04:00:21.888Z,13.13
2019-03-17T04:00:53.073Z,11.77
2019-03-17T04:01:24.248Z,12.83
2019-03-17T04:01:55.430Z,12.73
2019-03-17T04:02:26.608Z,15.53
2019-03-17T04:02:57.827Z,11.50
2019-03-17T04:03:29.000Z,10.17
2019-03-17T04:04:00.181Z,10.90
2019-03-17T04:04:31.370Z,13.00
2019-03-17T04:05:04.649Z,13.50
2019-03-17T04:05:35.838Z,10.60
2019-03-17T04:06:07.041Z,11.87
2019-03-17T04:06:38.186Z,11.63
2019-03-17T04:07:09.393Z,13.40
2019-03-17T04:07:40.548Z,11.30
2019-03-17T04:08:11.746Z,11.10
2019-03-17T04:08:42.912Z,10.27
2019-03-17T04:09:14.130Z,11.47
2019-03-17T04:09:45.425Z,13.70
2019-03-17T04:10:16.633Z,11.90
2019-03-17T04:10:47.783Z,12.60
2019-03-17T04:11:19.082Z,13.17
2019-03-17T04:11:50.247Z,11.93
2019-03-17T04:12:21.486Z,12.50
2019-03-17T04:12:52.644Z,13.23
2019-03-17T04:13:23.845Z,12.00
2019-03-17T04:13:55.059Z,11.00
2019-03-17T04:14:26.274Z,11.47
2019-03-17T04:14:57.804Z,12.30
2019-03-17T04:15:29.011Z,12.03
2019-03-17T04:16:00.170Z,10.97
2019-03-17T04:16:31.385Z,9.47
2019-03-17T04:17:02.588Z,10.57
2019-03-17T04:17:33.802Z,12.27
2019-03-17T04:18:05.112Z,12.50
2019-03-17T04:18:36.292Z,10.37
2019-03-17T04:19:07.503Z,10.93
2019-03-17T04:19:38.656Z,12.07
2019-03-17T04:20:10.633Z,11.77
2019-03-17T04:20:42.086Z,11.03
2019-03-17T04:21:13.317Z,12.03
2019-03-17T04:21:44.505Z,10.60
2019-03-17T04:22:15.686Z,12.17
2019-03-17T04:22:46.894Z,10.50
2019-03-17T04:23:18.135Z,13.20
2019-03-17T04:23:49.322Z,11.90
2019-03-17T04:24:20.522Z,12.93
2019-03-17T04:24:51.713Z,13.37
2019-03-17T04:25:22.907Z,11.70
2019-03-17T04:25:54.088Z,13.17
2019-03-17T04:26:25.426Z,11.57
2019-03-17T04:26:56.589Z,12.90
2019-03-17T04:27:27.820Z,14.47
2019-03-17T04:27:58.972Z,12.10
2019-03-17T04:28:30.242Z,12.20
2019-03-17T04:29:01.410Z,12.13
2019-03-17T04:29:32.622Z,11.50
2019-03-17T04:30:07.893Z,11.70
2019-03-17T04:30:39.152Z,13.90
2019-03-17T04:31:14.122Z,10.97
2019-03-17T04:31:43.403Z,10.67
2019-03-17T04:32:14.567Z,11.73
2019-03-17T04:32:46.766Z,12.90
2019-03-17T04:33:17.965Z,11.10
2019-03-17T04:33:49.162Z,11.20
2019-03-17T04:34:20.333Z,11.00
2019-03-17T04:34:51.542Z,11.27
2019-03-17T04:35:22.703Z,10.47
2019-03-17T04:35:53.927Z,11.23
2019-03-17T04:36:39.163Z,9.90
2019-03-17T04:36:58.386Z,13.17
2019-03-17T04:37:29.553Z,14.40
2019-03-17T04:38:00.720Z,11.40
2019-03-17T04:38:31.944Z,11.23
2019-03-17T04:39:04.988Z,11.50
2019-03-17T04:39:36.146Z,11.17
2019-03-17T04:40:08.161Z,12.50
2019-03-17T04:40:39.400Z,11.30
2019-03-17T04:41:10.666Z,11.30
2019-03-17T04:41:41.839Z,13.17
2019-03-17T04:42:13.024Z,12.67
2019-03-17T04:42:45.184Z,13.23
2019-03-17T04:43:16.412Z,13.47
2019-03-17T04:43:47.658Z,12.03
2019-03-17T04:44:21.049Z,11.27
2019-03-17T04:44:51.894Z,11.97
2019-03-17T04:45:23.054Z,13.20
2019-03-17T04:45:54.224Z,12.67
2019-03-17T04:46:25.404Z,12.63
2019-03-17T04:46:56.588Z,11.07
2019-03-17T04:47:27.758Z,10.77
2019-03-17T04:47:58.976Z,12.37
2019-03-17T04:48:30.140Z,10.50
2019-03-17T04:49:01.413Z,10.13
2019-03-17T04:49:32.680Z,11.17
2019-03-17T04:50:05.849Z,10.10
2019-03-17T04:50:37.080Z,10.43
2019-03-17T04:51:08.242Z,11.90
2019-03-17T04:51:39.474Z,12.03
2019-03-17T04:52:10.632Z,10.13
2019-03-17T04:52:41.845Z,9.97
2019-03-17T04:53:13.005Z,9.07
2019-03-17T04:53:44.225Z,9.33
2019-03-17T04:54:15.389Z,9.77
2019-03-17T04:54:46.605Z,11.23
2019-03-17T04:55:17.772Z,11.80
2019-03-17T04:55:48.999Z,10.07
2019-03-17T04:56:21.209Z,10.77
2019-03-17T04:56:52.497Z,13.20
2019-03-17T04:57:24.809Z,9.90
2019-03-17T04:57:55.995Z,11.60
2019-03-17T04:58:27.151Z,10.73
2019-03-17T04:58:58.387Z,10.83
2019-03-17T04:59:29.553Z,14.33
2019-03-17T05:00:00.755Z,11.23
2019-03-17T05:00:31.904Z,11.60
2019-03-17T05:01:03.112Z,12.20
2019-03-17T05:01:34.268Z,13.23
2019-03-17T05:02:05.482Z,10.33
2019-03-17T05:02:36.635Z,9.53
2019-03-17T05:03:07.847Z,12.00
2019-03-17T05:03:39.010Z,11.20
2019-03-17T05:04:10.216Z,12.77
2019-03-17T05:04:41.418Z,10.67
2019-03-17T05:05:12.619Z,8.50
2019-03-17T05:05:44.781Z,10.03
2019-03-17T05:06:15.983Z,15.93
2019-03-17T05:06:52.406Z,10.00
2019-03-17T05:07:20.319Z,12.20
2019-03-17T05:07:51.536Z,11.07
2019-03-17T05:08:22.760Z,10.07
2019-03-17T05:08:55.240Z,10.40
2019-03-17T05:09:26.512Z,11.33
2019-03-17T05:09:57.812Z,11.63
2019-03-17T05:10:29.033Z,9.77
2019-03-17T05:11:00.263Z,13.87
2019-03-17T05:11:31.495Z,10.87
2019-03-17T05:12:02.942Z,11.07
2019-03-17T05:12:34.100Z,11.47
2019-03-17T05:13:05.321Z,13.10
2019-03-17T05:13:37.487Z,11.57
2019-03-17T05:14:08.714Z,11.90
2019-03-17T05:14:39.879Z,10.87
2019-03-17T05:15:11.089Z,11.27
2019-03-17T05:15:42.253Z,10.40
2019-03-17T05:16:13.475Z,13.87
2019-03-17T05:16:44.622Z,11.77
2019-03-17T05:17:15.838Z,9.40
2019-03-17T05:17:46.987Z,10.87
2019-03-17T05:18:18.186Z,10.57
2019-03-17T05:18:49.353Z,9.83
2019-03-17T05:19:20.527Z,9.97
2019-03-17T05:19:51.731Z,12.27
2019-03-17T05:20:22.887Z,10.83
2019-03-17T05:20:54.055Z,10.67
2019-03-17T05:21:25.389Z,9.73
2019-03-17T05:21:56.551Z,11.13
2019-03-17T05:22:27.746Z,10.57
2019-03-17T05:22:58.923Z,9.47
2019-03-17T05:23:30.197Z,11.73
2019-03-17T05:24:01.421Z,12.73
2019-03-17T05:24:32.591Z,10.73
2019-03-17T05:25:05.291Z,10.50
2019-03-17T05:25:36.468Z,8.87
2019-03-17T05:26:07.648Z,11.80
2019-03-17T05:26:38.821Z,10.07
2019-03-17T05:27:10.019Z,11.37
2019-03-17T05:27:41.183Z,9.83
2019-03-17T05:28:12.396Z,10.97
2019-03-17T05:28:43.553Z,9.33
2019-03-17T05:29:14.752Z,10.17
2019-03-17T05:29:45.920Z,10.83
2019-03-17T05:30:17.112Z,14.23
2019-03-17T05:30:48.278Z,13.40
2019-03-17T05:31:19.483Z,12.53
2019-03-17T05:31:50.648Z,10.13
2019-03-17T05:32:21.855Z,11.53
2019-03-17T05:32:53.008Z,9.00
2019-03-17T05:33:24.208Z,10.93
2019-03-17T05:33:55.370Z,12.00
2019-03-17T05:34:26.572Z,10.07
2019-03-17T05:34:57.744Z,10.83
2019-03-17T05:35:28.958Z,10.87
2019-03-17T05:36:00.122Z,11.37
2019-03-17T05:36:31.354Z,10.60
2019-03-17T05:37:06.621Z,9.27
2019-03-17T05:37:35.629Z,10.80
2019-03-17T05:38:06.810Z,10.83
2019-03-17T05:38:38.008Z,12.50
2019-03-17T05:39:09.177Z,10.53
2019-03-17T05:39:40.372Z,10.73
2019-03-17T05:40:11.532Z,11.40
2019-03-17T05:40:42.732Z,10.40
2019-03-17T05:41:13.899Z,12.10
2019-03-17T05:41:45.101Z,11.00
2019-03-17T05:42:16.289Z,12.90
2019-03-17T05:42:47.459Z,11.73
2019-03-17T05:43:18.648Z,10.10
2019-03-17T05:43:49.829Z,11.03
2019-03-17T05:44:21.109Z,10.77
2019-03-17T05:44:52.291Z,10.83
2019-03-17T05:45:23.476Z,10.27
2019-03-17T05:45:54.792Z,9.17
2019-03-17T05:46:26.080Z,9.67
2019-03-17T05:46:57.297Z,10.43
2019-03-17T05:47:28.471Z,9.40
2019-03-17T05:47:59.653Z,9.17
2019-03-17T05:48:30.989Z,10.20
2019-03-17T05:49:02.167Z,9.70
2019-03-17T05:49:33.435Z,9.50
2019-03-17T05:50:07.282Z,9.63
2019-03-17T05:50:38.445Z,10.50
2019-03-17T05:51:09.592Z,11.97
2019-03-17T05:51:40.789Z,8.20
2019-03-17T05:52:11.950Z,10.33
2019-03-17T05:52:43.123Z,9.13
2019-03-17T05:53:14.312Z,10.13
2019-03-17T05:53:45.498Z,12.40
2019-03-17T05:54:16.700Z,14.17
2019-03-17T05:54:47.888Z,11.33
2019-03-17T05:55:19.084Z,9.93
2019-03-17T05:55:50.265Z,9.73
2019-03-17T05:56:21.443Z,9.53
2019-03-17T05:56:52.640Z,12.00
2019-03-17T05:57:23.868Z,9.77
2019-03-17T05:57:55.244Z,11.23
2019-03-17T05:58:26.507Z,7.97
2019-03-17T05:58:57.654Z,10.00
2019-03-17T05:59:28.889Z,9.97
2019-03-17T06:00:00.078Z,11.83
2019-03-17T06:00:31.282Z,8.43
2019-03-17T06:01:02.460Z,9.07
2019-03-17T06:01:33.674Z,9.27
2019-03-17T06:02:04.846Z,8.00
2019-03-17T06:02:36.051Z,8.97
2019-03-17T06:03:07.224Z,8.53
2019-03-17T06:03:38.529Z,9.37
2019-03-17T06:04:09.687Z,10.97
2019-03-17T06:04:40.915Z,8.07
2019-03-17T06:05:12.173Z,8.33
2019-03-17T06:05:43.427Z,12.97
2019-03-17T06:06:14.586Z,9.50
2019-03-17T06:06:45.807Z,9.40
2019-03-17T06:07:18.896Z,8.30
2019-03-17T06:07:51.086Z,10.00
2019-03-17T06:08:22.240Z,8.83
2019-03-17T06:08:53.433Z,8.47
2019-03-17T06:09:24.589Z,8.73
2019-03-17T06:09:55.812Z,9.70
2019-03-17T06:10:26.971Z,9.80
2019-03-17T06:11:00.007Z,9.93
2019-03-17T06:11:32.169Z,9.63
2019-03-17T06:12:03.401Z,10.57
2019-03-17T06:12:34.601Z,7.63
2019-03-17T06:13:05.775Z,12.43
2019-03-17T06:13:36.959Z,9.80
2019-03-17T06:14:08.147Z,23.03
2019-03-17T06:14:39.334Z,11.00
2019-03-17T06:15:10.670Z,18.43
2019-03-17T06:15:41.832Z,11.47
2019-03-17T06:16:13.015Z,10.00
2019-03-17T06:16:44.194Z,8.63
2019-03-17T06:17:15.377Z,9.83
2019-03-17T06:17:46.572Z,8.13
2019-03-17T06:18:17.806Z,11.00
2019-03-17T06:18:49.001Z,9.57
2019-03-17T06:19:20.175Z,10.27
2019-03-17T06:19:51.332Z,11.67
2019-03-17T06:20:22.544Z,8.70
2019-03-17T06:20:53.732Z,10.20
2019-03-17T06:21:25.197Z,12.37
2019-03-17T06:22:00.372Z,10.23
2019-03-17T06:22:30.656Z,10.27
2019-03-17T06:23:01.900Z,10.13
2019-03-17T06:23:33.113Z,10.37
2019-03-17T06:24:04.298Z,15.63
2019-03-17T06:24:35.473Z,10.17
2019-03-17T06:25:09.733Z,9.70
2019-03-17T06:25:40.931Z,7.93
2019-03-17T06:26:12.123Z,9.80
2019-03-17T06:26:43.318Z,8.33
2019-03-17T06:27:14.514Z,9.07
2019-03-17T06:27:45.733Z,10.43
2019-03-17T06:28:16.918Z,8.47
2019-03-17T06:28:48.111Z,9.93
2019-03-17T06:29:19.381Z,9.17
2019-03-17T06:29:50.588Z,8.10
2019-03-17T06:30:21.827Z,9.63
2019-03-17T06:30:53.031Z,11.17
2019-03-17T06:31:24.187Z,8.37
2019-03-17T06:31:55.593Z,10.10
2019-03-17T06:32:26.755Z,11.00
2019-03-17T06:32:58.075Z,13.20
2019-03-17T06:33:29.227Z,11.17
2019-03-17T06:34:01.435Z,12.07
2019-03-17T06:34:32.593Z,9.20
2019-03-17T06:35:04.495Z,9.03
2019-03-17T06:35:35.662Z,9.97
2019-03-17T06:36:06.982Z,10.17
2019-03-17T06:36:38.146Z,11.27
2019-03-17T06:37:09.347Z,11.43
2019-03-17T06:37:41.498Z,8.27
2019-03-17T06:38:12.690Z,9.07
2019-03-17T06:38:43.850Z,9.10
2019-03-17T06:39:15.016Z,7.97
2019-03-17T06:39:46.212Z,8.27
2019-03-17T06:40:17.379Z,8.67
2019-03-17T06:40:48.538Z,9.33
2019-03-17T06:41:19.717Z,8.13
2019-03-17T06:41:50.918Z,8.97
2019-03-17T06:42:22.214Z,8.77
2019-03-17T06:42:53.400Z,7.37
2019-03-17T06:43:24.981Z,8.90
2019-03-17T06:43:56.138Z,8.10
2019-03-17T06:44:27.496Z,8.37
2019-03-17T06:44:58.658Z,9.73
2019-03-17T06:45:29.810Z,8.73